Time;durP1;ratioP1;P1;durP2;ratioP2;P2;SDS_P1;SDS_P2;PMS_P1;PMS_P2;Temp;Humidity;BMP_temperature;BMP_pressure;BME280_temperature;BME280_humidity;BME280_pressure;Samples;Min_cycle;Max_cycle;Signal;HPM_P1;HPM_P2
2022/04/18 00:00:05;;;;;;;12.82;7.88;;;9.70;54.70;;;;;;5111782;27;38314;-52
2022/04/18 00:02:33;;;;;;;12.77;8.25;;;9.70;55.10;;;;;;5113127;27;37055;-51
2022/04/18 00:05:01;;;;;;;12.10;7.90;;;9.50;55.80;;;;;;5113479;27;36255;-48
2022/04/18 00:07:28;;;;;;;14.60;8.70;;;9.40;56.60;;;;;;5110749;27;36468;-51
2022/04/18 00:09:55;;;;;;;13.05;8.30;;;9.40;57.30;;;;;;5112567;27;39184;-51
2022/04/18 00:12:25;;;;;;;17.05;7.93;;;9.40;57.90;;;;;;5112520;27;37304;-52
2022/04/18 00:14:54;;;;;;;13.80;8.50;;;9.30;58.10;;;;;;5111978;27;37753;-49
2022/04/18 00:17:21;;;;;;;14.25;8.70;;;9.30;58.60;;;;;;5112695;27;37625;-49
2022/04/18 00:19:49;;;;;;;20.42;9.10;;;9.30;59.20;;;;;;5112516;27;38242;-49
2022/04/18 00:22:16;;;;;;;17.23;8.90;;;9.20;59.50;;;;;;5112319;27;35939;-50
2022/04/18 00:24:43;;;;;;;14.45;8.55;;;9.20;60.10;;;;;;5114112;27;36613;-50
2022/04/18 00:27:11;;;;;;;13.20;8.27;;;9.20;60.00;;;;;;5113221;27;38206;-48
2022/04/18 00:29:38;;;;;;;13.45;8.55;;;9.20;60.10;;;;;;5112649;27;36306;-50
2022/04/18 00:32:08;;;;;;;14.75;9.27;;;9.20;60.10;;;;;;5113957;27;37623;-53
2022/04/18 00:34:36;;;;;;;14.35;9.20;;;9.10;60.30;;;;;;5112521;27;35343;-52
2022/04/18 00:37:04;;;;;;;18.10;9.85;;;9.10;60.40;;;;;;5112689;27;37816;-50
2022/04/18 00:39:31;;;;;;;13.98;8.50;;;9.00;60.50;;;;;;5112731;27;37200;-52
2022/04/18 00:41:59;;;;;;;15.75;9.60;;;8.90;60.90;;;;;;5113469;27;38602;-52
2022/04/18 00:44:27;;;;;;;20.13;9.75;;;9.00;61.20;;;;;;5112490;27;36315;-53
2022/04/18 00:46:54;;;;;;;15.85;9.55;;;9.00;61.10;;;;;;5112994;27;38645;-51
2022/04/18 00:49:23;;;;;;;14.40;8.95;;;8.90;61.20;;;;;;5113319;27;37345;-52
2022/04/18 00:51:51;;;;;;;17.02;10.13;;;9.00;61.40;;;;;;5113158;27;37435;-52
2022/04/18 00:54:19;;;;;;;16.42;9.80;;;9.00;61.30;;;;;;5112344;27;38047;-53
2022/04/18 00:56:47;;;;;;;15.55;9.38;;;8.90;61.30;;;;;;5112282;27;37661;-52
2022/04/18 00:59:14;;;;;;;15.18;9.32;;;8.90;61.50;;;;;;5113130;27;36108;-49
2022/04/18 01:01:42;;;;;;;16.08;9.63;;;8.80;61.50;;;;;;5113769;27;37074;-50
2022/04/18 01:04:09;;;;;;;14.32;9.07;;;8.80;62.10;;;;;;5113400;27;36637;-51
2022/04/18 01:06:38;;;;;;;15.20;9.73;;;8.90;62.00;;;;;;5110554;27;36410;-52
2022/04/18 01:09:06;;;;;;;16.10;10.07;;;8.90;62.30;;;;;;5111608;27;37178;-52
2022/04/18 01:11:34;;;;;;;15.05;9.57;;;8.90;62.50;;;;;;5111394;27;38383;-52
2022/04/18 01:14:02;;;;;;;20.27;10.85;;;9.00;62.10;;;;;;5111985;27;36964;-52
2022/04/18 01:16:30;;;;;;;19.35;10.57;;;9.00;61.80;;;;;;5110898;27;37872;-48
2022/04/18 01:18:57;;;;;;;15.02;10.13;;;9.00;61.80;;;;;;5111603;27;37769;-50
2022/04/18 01:21:26;;;;;;;17.35;10.25;;;9.10;61.90;;;;;;5111421;27;37422;-52
2022/04/18 01:23:58;;;;;;;17.92;11.00;;;9.10;61.60;;;;;;5111855;27;37203;-49
2022/04/18 01:29:15;;;;;;;18.73;10.32;;;9.10;61.40;;;;;;5090195;27;37621;-51
2022/04/18 01:31:43;;;;;;;18.42;10.38;;;9.10;61.40;;;;;;5111732;27;36118;-52
2022/04/18 01:34:10;;;;;;;15.60;10.40;;;9.10;61.30;;;;;;5111868;27;37279;-52
2022/04/18 01:36:39;;;;;;;16.60;10.05;;;9.10;61.30;;;;;;5110009;27;38706;-51
2022/04/18 01:39:06;;;;;;;16.83;10.43;;;9.10;61.30;;;;;;5110738;27;37177;-49
2022/04/18 01:41:34;;;;;;;20.48;11.18;;;9.00;61.60;;;;;;5111689;27;37188;-51
2022/04/18 01:44:01;;;;;;;15.82;10.45;;;8.90;62.00;;;;;;5112019;27;36320;-53
2022/04/18 01:46:28;;;;;;;21.08;10.60;;;8.80;62.20;;;;;;5111776;27;38310;-48
2022/04/18 01:48:56;;;;;;;15.77;10.43;;;8.80;62.30;;;;;;5110966;27;37191;-51
2022/04/18 01:51:23;;;;;;;16.40;10.70;;;8.80;62.90;;;;;;5111056;27;37821;-52
2022/04/18 01:53:52;;;;;;;16.00;10.73;;;8.70;63.20;;;;;;5112289;27;36568;-50
2022/04/18 01:56:19;;;;;;;16.67;10.13;;;8.80;63.20;;;;;;5110772;27;38290;-51
2022/04/18 01:58:46;;;;;;;16.52;9.82;;;8.80;63.20;;;;;;5111493;27;38173;-51
2022/04/18 02:01:14;;;;;;;17.45;9.95;;;8.80;63.30;;;;;;5111081;27;37663;-49
2022/04/18 02:03:42;;;;;;;17.08;9.60;;;8.80;63.30;;;;;;5110748;27;35352;-49
2022/04/18 02:06:10;;;;;;;18.17;10.55;;;8.90;63.30;;;;;;5109238;27;37532;-53
2022/04/18 02:08:37;;;;;;;17.88;10.20;;;8.90;63.70;;;;;;5110812;27;38168;-51
2022/04/18 02:11:07;;;;;;;16.45;9.75;;;8.80;63.60;;;;;;5111313;27;36882;-48
2022/04/18 02:13:34;;;;;;;14.93;9.85;;;8.80;63.40;;;;;;5111685;27;36719;-49
2022/04/18 02:16:01;;;;;;;17.92;10.85;;;8.80;63.60;;;;;;5111162;27;37885;-50
2022/04/18 02:18:29;;;;;;;15.43;10.18;;;8.70;64.10;;;;;;5110984;27;37926;-51
2022/04/18 02:20:56;;;;;;;15.40;9.68;;;8.80;64.20;;;;;;5111996;27;37321;-50
2022/04/18 02:23:26;;;;;;;15.38;9.45;;;8.70;64.40;;;;;;5111325;27;36596;-48
2022/04/18 02:25:54;;;;;;;15.55;9.48;;;8.80;63.90;;;;;;5111213;27;38127;-52
2022/04/18 02:28:22;;;;;;;17.38;10.35;;;8.70;63.50;;;;;;5111611;27;37566;-49
2022/04/18 02:30:50;;;;;;;17.67;10.00;;;8.70;63.30;;;;;;5112129;27;38138;-51
2022/04/18 02:33:17;;;;;;;19.05;10.30;;;8.70;63.10;;;;;;5111848;27;37858;-50
2022/04/18 02:35:44;;;;;;;17.48;9.77;;;8.70;62.80;;;;;;5111047;27;37273;-51
2022/04/18 02:38:12;;;;;;;16.15;10.20;;;8.70;62.70;;;;;;5112799;27;37257;-52
2022/04/18 02:40:39;;;;;;;16.83;8.90;;;8.70;62.60;;;;;;5111586;27;38073;-53
2022/04/18 02:43:08;;;;;;;15.90;9.52;;;8.70;62.70;;;;;;5112224;27;37090;-47
2022/04/18 02:45:37;;;;;;;15.57;10.05;;;8.70;62.80;;;;;;5110022;27;37298;-51
2022/04/18 02:48:05;;;;;;;15.10;9.07;;;8.70;62.60;;;;;;5110730;27;37750;-49
2022/04/18 02:50:33;;;;;;;16.63;9.90;;;8.70;62.90;;;;;;5111955;27;36502;-49
2022/04/18 02:53:00;;;;;;;14.55;9.23;;;8.60;62.70;;;;;;5115615;27;37003;-52
2022/04/18 02:55:28;;;;;;;18.52;9.48;;;8.60;62.60;;;;;;5115062;27;38636;-49
2022/04/18 02:57:55;;;;;;;15.80;9.23;;;8.50;62.90;;;;;;5114706;27;37207;-49
2022/04/18 03:00:23;;;;;;;15.50;9.50;;;8.50;62.70;;;;;;5115767;27;37986;-51
2022/04/18 03:02:51;;;;;;;18.00;10.75;;;8.40;62.70;;;;;;5115446;27;37552;-49
2022/04/18 03:05:19;;;;;;;18.15;9.88;;;8.40;63.00;;;;;;5114552;27;38590;-52
2022/04/18 03:07:46;;;;;;;17.10;10.27;;;8.30;63.60;;;;;;5112638;27;37038;-51
2022/04/18 03:10:14;;;;;;;14.63;9.85;;;8.20;63.30;;;;;;5114541;27;36565;-49
2022/04/18 03:12:42;;;;;;;15.27;9.18;;;8.10;63.40;;;;;;5113501;27;37400;-49
2022/04/18 03:15:09;;;;;;;15.23;8.63;;;8.10;63.20;;;;;;5114395;27;37483;-48
2022/04/18 03:17:37;;;;;;;16.25;9.73;;;8.10;63.10;;;;;;5114491;27;37267;-52
2022/04/18 03:20:07;;;;;;;16.67;9.07;;;8.20;63.50;;;;;;5115462;27;38704;-51
2022/04/18 03:22:34;;;;;;;18.80;10.77;;;8.10;63.30;;;;;;5115030;27;36263;-50
2022/04/18 03:25:01;;;;;;;15.23;10.15;;;8.10;63.40;;;;;;5113899;27;37615;-50
2022/04/18 03:27:29;;;;;;;14.70;9.00;;;8.10;63.50;;;;;;5114490;27;37451;-51
2022/04/18 03:29:56;;;;;;;15.15;9.10;;;8.00;63.60;;;;;;5115721;27;35855;-50
2022/04/18 03:32:24;;;;;;;14.23;8.93;;;8.00;63.90;;;;;;5115343;27;36872;-52
2022/04/18 03:34:52;;;;;;;15.32;8.90;;;8.00;64.10;;;;;;5113668;27;37730;-51
2022/04/18 03:40:06;;;;;;;17.00;9.93;;;8.00;64.30;;;;;;5115209;27;36877;-52
2022/04/18 03:42:34;;;;;;;17.00;9.07;;;8.00;64.30;;;;;;5113981;27;37340;-53
2022/04/18 03:45:03;;;;;;;19.30;10.07;;;8.00;64.20;;;;;;5113272;27;37271;-50
2022/04/18 03:47:31;;;;;;;17.02;9.70;;;8.00;64.10;;;;;;5113404;27;38290;-51
2022/04/18 03:50:01;;;;;;;15.95;10.02;;;8.00;64.10;;;;;;5113955;27;37926;-52
2022/04/18 03:52:30;;;;;;;14.90;9.50;;;8.00;64.20;;;;;;5114047;27;36581;-51
2022/04/18 03:54:57;;;;;;;15.32;9.55;;;8.00;64.50;;;;;;5114062;27;38267;-50
2022/04/18 03:57:25;;;;;;;16.02;9.55;;;8.00;64.90;;;;;;5114177;27;38136;-50
2022/04/18 03:59:54;;;;;;;16.30;10.05;;;8.00;65.20;;;;;;5114558;27;37898;-49
2022/04/18 04:02:22;;;;;;;17.65;10.10;;;8.00;64.90;;;;;;5114295;27;36058;-51
2022/04/18 04:04:49;;;;;;;14.18;8.65;;;8.00;64.90;;;;;;5113334;27;37445;-51
2022/04/18 04:07:17;;;;;;;16.73;9.30;;;8.00;65.10;;;;;;5112173;27;38159;-52
2022/04/18 04:09:45;;;;;;;17.92;9.68;;;7.90;65.20;;;;;;5113358;27;37799;-53
2022/04/18 04:12:13;;;;;;;17.10;9.75;;;7.90;65.10;;;;;;5113770;27;35376;-52
2022/04/18 04:14:40;;;;;;;15.48;9.10;;;7.90;65.20;;;;;;5113789;27;38387;-52
2022/04/18 04:17:07;;;;;;;15.38;9.27;;;7.90;65.20;;;;;;5113375;27;37884;-51
2022/04/18 04:19:38;;;;;;;14.07;9.25;;;7.90;65.30;;;;;;5114955;27;36333;-51
2022/04/18 04:22:06;;;;;;;17.63;9.80;;;7.80;65.60;;;;;;5114569;27;36462;-52
2022/04/18 04:24:33;;;;;;;15.93;9.23;;;7.80;65.70;;;;;;5113745;27;38191;-52
2022/04/18 04:27:02;;;;;;;16.38;9.90;;;7.80;66.00;;;;;;5112889;27;35988;-52
2022/04/18 04:29:29;;;;;;;15.25;9.15;;;7.80;66.70;;;;;;5113936;27;35993;-51
2022/04/18 04:31:57;;;;;;;19.35;9.95;;;7.70;67.00;;;;;;5113572;27;36576;-51
2022/04/18 04:34:24;;;;;;;14.13;9.20;;;7.70;66.80;;;;;;5114695;27;37576;-51
2022/04/18 04:36:52;;;;;;;16.27;9.25;;;7.70;66.60;;;;;;5113767;27;38203;-51
2022/04/18 04:39:19;;;;;;;17.52;9.93;;;7.70;66.50;;;;;;5114207;27;38465;-50
2022/04/18 04:41:46;;;;;;;15.27;9.32;;;7.70;66.40;;;;;;5113991;27;36331;-52
2022/04/18 04:44:15;;;;;;;13.18;8.45;;;7.70;66.40;;;;;;5113352;27;37004;-49
2022/04/18 04:46:43;;;;;;;17.15;9.35;;;7.80;66.90;;;;;;5113105;27;38186;-51
2022/04/18 04:49:10;;;;;;;14.88;8.50;;;7.80;66.60;;;;;;5113407;27;37296;-51
2022/04/18 04:51:38;;;;;;;14.75;9.15;;;7.80;66.30;;;;;;5112616;27;37125;-50
2022/04/18 04:54:06;;;;;;;15.93;9.85;;;7.90;66.30;;;;;;5113497;27;38773;-50
2022/04/18 04:56:33;;;;;;;14.63;8.73;;;7.90;66.50;;;;;;5111640;27;35438;-52
2022/04/18 04:59:03;;;;;;;15.07;8.68;;;8.00;66.40;;;;;;5112811;27;37278;-51
2022/04/18 05:01:33;;;;;;;15.13;9.05;;;8.00;66.30;;;;;;5112312;27;36007;-50
2022/04/18 05:04:01;;;;;;;14.95;9.00;;;8.10;66.00;;;;;;5111803;27;38948;-50
2022/04/18 05:06:28;;;;;;;16.08;8.77;;;8.20;65.60;;;;;;5113422;27;36363;-50
2022/04/18 05:08:55;;;;;;;13.90;8.57;;;8.20;65.60;;;;;;5111906;27;40297;-51
2022/04/18 05:11:22;;;;;;;15.43;8.88;;;8.40;65.50;;;;;;5112261;27;37764;-48
2022/04/18 05:13:50;;;;;;;15.00;8.80;;;8.40;65.20;;;;;;5112339;27;36379;-53
2022/04/18 05:16:17;;;;;;;17.58;8.85;;;8.60;65.00;;;;;;5111481;27;38067;-48
2022/04/18 05:18:49;;;;;;;16.70;9.98;;;8.90;64.30;;;;;;5112048;27;36903;-59
2022/04/18 05:21:17;;;;;;;15.63;9.07;;;9.20;64.00;;;;;;5113530;27;36388;-59
2022/04/18 05:23:44;;;;;;;17.05;9.57;;;9.40;63.60;;;;;;5113439;27;37471;-52
2022/04/18 05:26:12;;;;;;;14.63;8.68;;;9.80;62.20;;;;;;5113814;27;37947;-52
2022/04/18 05:28:41;;;;;;;15.13;9.52;;;10.20;61.00;;;;;;5112832;27;37290;-60
2022/04/18 05:31:09;;;;;;;15.50;9.57;;;10.60;60.00;;;;;;5113268;27;38899;-60
2022/04/18 05:33:36;;;;;;;13.98;8.55;;;11.00;59.60;;;;;;5113761;27;38085;-51
2022/04/18 05:36:08;;;;;;;15.60;8.95;;;11.30;59.10;;;;;;5112544;27;37776;-51
2022/04/18 05:38:35;;;;;;;13.90;8.65;;;11.60;57.60;;;;;;5112773;27;35910;-60
2022/04/18 05:41:06;;;;;;;15.68;9.52;;;11.80;56.80;;;;;;5113425;27;37903;-59
2022/04/18 05:43:33;;;;;;;16.08;8.82;;;11.70;56.80;;;;;;5112296;27;38104;-60
2022/04/18 05:46:01;;;;;;;15.95;9.52;;;11.70;57.20;;;;;;5113106;27;36112;-53
2022/04/18 05:48:28;;;;;;;14.98;9.05;;;11.80;57.70;;;;;;5113045;27;36458;-60
2022/04/18 05:50:56;;;;;;;15.45;9.57;;;11.90;57.50;;;;;;5113886;27;37063;-60
2022/04/18 05:53:27;;;;;;;15.50;8.88;;;12.20;56.70;;;;;;5113336;27;38329;-60
2022/04/18 05:55:57;;;;;;;16.63;9.05;;;12.50;55.50;;;;;;5112902;27;36090;-60
2022/04/18 05:58:26;;;;;;;14.77;8.68;;;13.10;55.10;;;;;;5112013;27;36960;-53
2022/04/18 06:00:54;;;;;;;14.32;8.18;;;13.30;54.00;;;;;;5113489;27;36564;-54
2022/04/18 06:03:24;;;;;;;12.45;8.52;;;13.20;53.10;;;;;;5113333;27;38147;-52
2022/04/18 06:05:52;;;;;;;12.85;8.50;;;13.20;53.10;;;;;;5113403;27;36217;-60
2022/04/18 06:08:19;;;;;;;14.50;8.93;;;13.30;53.40;;;;;;5112836;27;38353;-60
2022/04/18 06:10:48;;;;;;;13.38;7.75;;;13.60;53.20;;;;;;5112815;27;37146;-60
2022/04/18 06:13:16;;;;;;;12.73;7.50;;;14.20;50.70;;;;;;5113143;27;37573;-52
2022/04/18 06:15:43;;;;;;;13.57;8.35;;;14.80;49.40;;;;;;5111617;27;37951;-53
2022/04/18 06:18:11;;;;;;;14.63;8.27;;;15.60;48.20;;;;;;5113944;27;36109;-53
2022/04/18 06:20:38;;;;;;;13.43;8.63;;;16.00;46.30;;;;;;5113961;27;37422;-60
2022/04/18 06:23:05;;;;;;;14.63;7.95;;;16.20;45.70;;;;;;5112571;27;37324;-60
2022/04/18 06:25:33;;;;;;;13.32;7.97;;;16.10;45.20;;;;;;5115036;27;37272;-52
2022/04/18 06:28:02;;;;;;;12.88;7.63;;;16.20;45.10;;;;;;5115337;27;36854;-53
2022/04/18 06:30:29;;;;;;;12.90;7.75;;;16.40;44.40;;;;;;5116081;27;35969;-51
2022/04/18 06:32:57;;;;;;;13.23;7.93;;;16.00;44.70;;;;;;5116235;27;37488;-52
2022/04/18 06:35:27;;;;;;;12.15;7.57;;;15.50;45.10;;;;;;5115788;27;38387;-52
2022/04/18 06:37:55;;;;;;;13.30;7.68;;;15.20;46.30;;;;;;5114312;27;37205;-61
2022/04/18 06:40:22;;;;;;;12.52;7.65;;;15.10;46.20;;;;;;5115820;27;37400;-60
2022/04/18 06:42:51;;;;;;;11.55;7.75;;;14.80;46.00;;;;;;5115822;27;36346;-60
2022/04/18 06:45:24;;;;;;;12.38;7.15;;;14.60;46.90;;;;;;5115942;27;36697;-55
2022/04/18 06:47:51;;;;;;;12.52;6.93;;;14.40;46.70;;;;;;5117154;27;36885;-60
2022/04/18 06:50:18;;;;;;;13.82;7.82;;;14.20;46.90;;;;;;5116051;27;35388;-53
2022/04/18 06:52:49;;;;;;;11.55;7.30;;;14.20;47.50;;;;;;5115382;27;37132;-54
2022/04/18 06:55:17;;;;;;;13.15;7.25;;;14.20;47.70;;;;;;5116147;27;37435;-62
2022/04/18 06:57:44;;;;;;;12.77;7.63;;;14.20;47.80;;;;;;5115658;27;37018;-60
2022/04/18 07:00:19;;;;;;;12.18;7.70;;;14.20;47.00;;;;;;5116111;27;36771;-61
2022/04/18 07:02:50;;;;;;;11.95;7.10;;;14.20;47.70;;;;;;5116615;27;36436;-54
2022/04/18 07:05:18;;;;;;;11.80;7.38;;;14.10;47.50;;;;;;5116047;27;37676;-60
2022/04/18 07:07:48;;;;;;;12.68;7.65;;;14.20;47.50;;;;;;5113365;27;37801;-53
2022/04/18 07:10:15;;;;;;;13.55;7.22;;;14.20;47.30;;;;;;5113728;27;35505;-52
2022/04/18 07:12:42;;;;;;;12.00;6.63;;;14.20;47.90;;;;;;5113647;27;37561;-61
2022/04/18 07:15:13;;;;;;;11.27;7.30;;;14.30;48.20;;;;;;5113361;27;37935;-59
2022/04/18 07:17:40;;;;;;;10.25;7.00;;;14.40;47.90;;;;;;5114974;27;37131;-53
2022/04/18 07:20:10;;;;;;;10.55;6.50;;;14.50;48.40;;;;;;5113894;27;36464;-53
2022/04/18 07:22:39;;;;;;;12.63;7.53;;;14.70;48.10;;;;;;5114923;27;36159;-53
2022/04/18 07:25:09;;;;;;;11.30;6.85;;;14.80;48.00;;;;;;5115892;27;36149;-61
2022/04/18 07:27:37;;;;;;;12.90;7.63;;;14.90;47.70;;;;;;5113919;27;37855;-60
2022/04/18 07:30:06;;;;;;;13.43;7.15;;;15.00;48.20;;;;;;5113267;27;36532;-61
2022/04/18 07:32:39;;;;;;;16.23;7.22;;;15.00;47.60;;;;;;5114198;27;38926;-60
2022/04/18 07:35:10;;;;;;;12.70;6.82;;;15.10;47.00;;;;;;5113802;27;37110;-60
2022/04/18 07:38:48;;;;;;;11.15;6.50;;;15.20;47.20;;;;;;5112977;27;35772;-60
2022/04/18 07:40:25;;;;;;;11.52;7.35;;;15.30;46.70;;;;;;5113738;27;37741;-60
2022/04/18 07:42:52;;;;;;;10.48;6.22;;;15.40;46.60;;;;;;5114701;27;37385;-61
2022/04/18 07:45:20;;;;;;;12.25;6.82;;;15.50;46.70;;;;;;5115588;27;37091;-53
2022/04/18 07:47:47;;;;;;;13.75;6.93;;;15.70;45.50;;;;;;5114416;27;36962;-52
2022/04/18 07:50:16;;;;;;;11.75;6.38;;;16.10;44.10;;;;;;5111998;27;36419;-51
2022/04/18 07:52:42;;;;;;;11.55;7.45;;;16.70;42.80;;;;;;5112123;27;36273;-51
2022/04/18 07:55:10;;;;;;;10.82;6.75;;;17.30;42.00;;;;;;5111312;27;37328;-60
2022/04/18 07:57:38;;;;;;;12.20;7.22;;;17.60;40.20;;;;;;5109833;27;36106;-60
2022/04/18 08:00:06;;;;;;;10.70;6.47;;;17.60;39.60;;;;;;5112422;27;36877;-61
2022/04/18 08:02:34;;;;;;;10.48;6.80;;;17.50;40.40;;;;;;5113685;27;39456;-61
2022/04/18 08:05:02;;;;;;;12.52;7.15;;;17.20;39.90;;;;;;5114704;27;37112;-52
2022/04/18 08:07:31;;;;;;;12.88;6.53;;;17.00;40.50;;;;;;5114079;27;36954;-53
2022/04/18 08:09:58;;;;;;;10.73;6.55;;;16.90;41.10;;;;;;5114977;27;38025;-53
2022/04/18 08:12:25;;;;;;;12.85;6.53;;;16.90;41.50;;;;;;5114555;27;39094;-61
2022/04/18 08:14:55;;;;;;;9.75;6.03;;;17.00;41.20;;;;;;5114450;27;37426;-60
2022/04/18 08:17:23;;;;;;;10.75;6.72;;;17.10;41.20;;;;;;5113808;27;36728;-60
2022/04/18 08:19:50;;;;;;;10.80;7.20;;;17.10;41.20;;;;;;5114504;27;36290;-60
2022/04/18 08:22:20;;;;;;;9.57;6.13;;;17.00;40.30;;;;;;5114336;27;37572;-52
2022/04/18 08:24:49;;;;;;;11.35;6.38;;;17.10;40.80;;;;;;5114845;27;37804;-53
2022/04/18 08:27:16;;;;;;;9.45;6.03;;;17.10;40.30;;;;;;5113752;27;37486;-52
2022/04/18 08:29:45;;;;;;;12.60;6.80;;;17.20;40.30;;;;;;5115179;27;36618;-53
2022/04/18 08:32:13;;;;;;;12.07;6.22;;;17.10;41.00;;;;;;5112420;27;37588;-55
2022/04/18 08:34:41;;;;;;;11.18;6.93;;;17.20;40.20;;;;;;5114045;27;37633;-61
2022/04/18 08:37:12;;;;;;;11.93;6.50;;;17.30;39.70;;;;;;5112435;27;36962;-52
2022/04/18 08:39:39;;;;;;;10.82;6.95;;;17.40;40.80;;;;;;5114831;27;35723;-53
2022/04/18 08:42:09;;;;;;;10.20;6.35;;;17.50;40.90;;;;;;5113977;27;38369;-54
2022/04/18 08:44:38;;;;;;;14.00;6.90;;;17.50;40.50;;;;;;5112743;27;38333;-54
2022/04/18 08:47:06;;;;;;;9.77;5.68;;;17.70;40.30;;;;;;5113459;27;36937;-54
2022/04/18 08:55:05;;;;;;;10.13;5.93;;;18.00;40.00;;;;;;5113395;27;38463;-61
2022/04/18 08:57:37;;;;;;;10.15;6.13;;;18.20;39.70;;;;;;5112857;27;37105;-54
2022/04/18 09:00:05;;;;;;;10.63;5.93;;;18.30;38.40;;;;;;5111761;27;37391;-52
2022/04/18 09:02:32;;;;;;;10.13;6.00;;;18.40;38.10;;;;;;5112315;27;37509;-60
2022/04/18 09:05:00;;;;;;;11.73;6.65;;;18.50;38.50;;;;;;5113236;27;36881;-61
2022/04/18 09:07:27;;;;;;;10.90;5.80;;;18.70;38.30;;;;;;5110286;27;38238;-61
2022/04/18 09:09:56;;;;;;;11.68;6.25;;;18.80;37.50;;;;;;5109381;27;37414;-60
2022/04/18 09:12:27;;;;;;;11.65;5.88;;;18.80;38.50;;;;;;5113508;27;37286;-60
2022/04/18 09:14:56;;;;;;;11.32;6.13;;;18.90;38.90;;;;;;5112697;27;37440;-61
2022/04/18 09:17:31;;;;;;;9.52;5.55;;;19.00;39.10;;;;;;5113585;27;36891;-60
2022/04/18 09:20:09;;;;;;;10.25;5.85;;;19.10;38.80;;;;;;5111869;27;36414;-60
2022/04/18 09:22:43;;;;;;;10.35;5.18;;;19.10;38.70;;;;;;5111195;27;37637;-53
2022/04/18 09:25:15;;;;;;;9.30;5.38;;;19.20;38.60;;;;;;5111198;27;37168;-52
2022/04/18 09:27:47;;;;;;;11.05;5.10;;;19.30;37.60;;;;;;5110699;27;37787;-54
2022/04/18 09:30:19;;;;;;;11.45;6.20;;;19.30;37.70;;;;;;5109535;27;35246;-54
2022/04/18 09:32:57;;;;;;;9.38;4.90;;;19.30;36.60;;;;;;5111184;27;36467;-61
2022/04/18 09:35:26;;;;;;;9.65;5.18;;;19.40;36.70;;;;;;5110251;27;37661;-60
2022/04/18 09:37:55;;;;;;;10.30;5.97;;;19.50;36.70;;;;;;5108966;27;37137;-60
2022/04/18 09:40:23;;;;;;;10.27;5.32;;;19.60;37.10;;;;;;5108593;27;36975;-51
2022/04/18 09:42:53;;;;;;;8.70;5.45;;;19.70;37.80;;;;;;5109908;27;37517;-53
2022/04/18 09:45:23;;;;;;;9.23;4.95;;;19.90;38.00;;;;;;5109096;27;37241;-52
2022/04/18 09:47:55;;;;;;;7.78;4.20;;;20.10;37.10;;;;;;5111566;27;37129;-54
2022/04/18 09:53:16;;;;;;;8.63;4.90;;;20.10;35.30;;;;;;5111451;27;38730;-61
2022/04/18 09:55:47;;;;;;;8.95;4.65;;;20.20;35.40;;;;;;5111688;27;39275;-60
2022/04/18 09:58:15;;;;;;;8.18;4.50;;;20.30;35.90;;;;;;5111213;27;36913;-53
2022/04/18 10:00:44;;;;;;;7.97;4.57;;;20.40;35.80;;;;;;5111136;27;35584;-55
2022/04/18 10:03:11;;;;;;;8.65;4.88;;;20.40;35.30;;;;;;5109112;27;36598;-54
2022/04/18 10:05:40;;;;;;;9.27;5.05;;;20.60;35.90;;;;;;5110572;27;37837;-53
2022/04/18 10:08:08;;;;;;;10.38;5.32;;;20.70;35.80;;;;;;5112720;27;37291;-54
2022/04/18 10:10:40;;;;;;;8.95;4.65;;;20.70;35.30;;;;;;5110886;27;20062;-53
2022/04/18 10:13:10;;;;;;;7.57;4.07;;;20.80;35.00;;;;;;5111252;27;37559;-52
2022/04/18 10:15:40;;;;;;;6.72;3.75;;;20.90;35.50;;;;;;5110877;27;38207;-54
2022/04/18 10:18:10;;;;;;;7.10;4.28;;;21.00;35.30;;;;;;5110415;27;36678;-55
2022/04/18 10:21:03;;;;;;;7.90;4.80;;;21.00;33.90;;;;;;5112325;27;36690;-54
2022/04/18 10:24:16;;;;;;;9.18;5.30;;;20.90;31.40;;;;;;5111056;27;37339;-52
2022/04/18 10:27:26;;;;;;;6.65;4.05;;;20.80;32.50;;;;;;5110670;27;36230;-54
2022/04/18 10:29:55;;;;;;;7.10;3.10;;;20.80;33.10;;;;;;5111449;27;39427;-54
2022/04/18 10:32:30;;;;;;;7.15;3.25;;;21.00;33.00;;;;;;5110842;27;35281;-54
2022/04/18 10:35:01;;;;;;;7.60;3.85;;;21.00;32.20;;;;;;5110614;27;37923;-53
2022/04/18 10:37:30;;;;;;;8.57;4.30;;;21.20;32.90;;;;;;5109253;27;40246;-53
2022/04/18 10:40:00;;;;;;;7.30;3.90;;;21.20;33.30;;;;;;5110067;27;35865;-54
2022/04/18 10:42:33;;;;;;;7.55;3.70;;;21.30;33.50;;;;;;5110104;27;36345;-54
2022/04/18 10:45:03;;;;;;;6.03;2.60;;;21.30;32.60;;;;;;5109723;27;36359;-54
2022/04/18 10:48:02;;;;;;;6.40;3.00;;;21.30;32.30;;;;;;5108776;27;37523;-55
2022/04/18 10:50:35;;;;;;;7.57;3.10;;;21.30;29.60;;;;;;5108424;27;39468;-53
2022/04/18 10:53:20;;;;;;;5.07;2.43;;;21.30;30.90;;;;;;5112128;27;35586;-54
2022/04/18 10:56:15;;;;;;;5.40;2.85;;;21.30;31.10;;;;;;5109567;27;38313;-54
2022/04/18 10:58:47;;;;;;;4.38;2.25;;;21.30;32.10;;;;;;5096663;27;37325;-53
2022/04/18 11:01:15;;;;;;;7.40;2.97;;;21.40;31.30;;;;;;5108933;27;36850;-52
2022/04/18 11:03:55;;;;;;;13.13;2.25;;;21.40;31.10;;;;;;5107350;27;35826;-61
2022/04/18 11:06:52;;;;;;;4.32;2.00;;;21.40;30.00;;;;;;5107841;27;38015;-61
2022/04/18 11:09:24;;;;;;;4.03;1.73;;;21.40;28.70;;;;;;5108606;27;37951;-60
2022/04/18 11:11:56;;;;;;;5.75;2.40;;;21.20;29.10;;;;;;5109897;27;37660;-61
2022/04/18 11:14:25;;;;;;;4.97;2.00;;;21.20;28.80;;;;;;5111830;27;37228;-60
2022/04/18 11:17:03;;;;;;;3.90;1.77;;;21.10;29.00;;;;;;5111006;27;36235;-54
2022/04/18 11:19:33;;;;;;;4.75;2.33;;;21.10;29.30;;;;;;5110624;27;37565;-60
2022/04/18 11:22:27;;;;;;;6.85;3.50;;;21.10;29.30;;;;;;5113018;27;37136;-61
2022/04/18 11:24:58;;;;;;;6.53;3.17;;;21.10;28.70;;;;;;5112704;27;37263;-61
2022/04/18 11:27:32;;;;;;;4.80;2.50;;;21.10;29.60;;;;;;5112088;27;38360;-60
2022/04/18 11:30:02;;;;;;;5.82;2.80;;;21.10;29.50;;;;;;5111566;27;37235;-60
2022/04/18 11:32:33;;;;;;;5.47;2.45;;;21.00;28.90;;;;;;5112047;27;36987;-60
2022/04/18 11:35:03;;;;;;;5.40;2.47;;;21.00;29.90;;;;;;5111726;27;36485;-60
2022/04/18 11:37:34;;;;;;;5.97;2.85;;;21.10;29.70;;;;;;5111337;27;37390;-60
2022/04/18 11:40:03;;;;;;;6.03;3.00;;;21.10;30.00;;;;;;5112579;27;36411;-60
2022/04/18 11:42:31;;;;;;;6.55;2.75;;;21.10;29.30;;;;;;5112278;27;37872;-60
2022/04/18 11:45:00;;;;;;;5.30;2.78;;;21.10;29.40;;;;;;5113205;27;37638;-60
2022/04/18 11:47:29;;;;;;;4.80;2.67;;;21.00;28.60;;;;;;5112313;27;39025;-60
2022/04/18 11:49:58;;;;;;;6.70;2.70;;;20.90;29.80;;;;;;5111957;27;37779;-60
2022/04/18 11:52:28;;;;;;;5.85;2.47;;;20.90;29.50;;;;;;5111407;27;37349;-61
2022/04/18 11:54:59;;;;;;;5.45;3.05;;;20.80;29.00;;;;;;5113648;27;37289;-61
2022/04/18 11:57:28;;;;;;;7.40;2.70;;;20.70;30.50;;;;;;5111731;27;36240;-60
2022/04/18 11:59:56;;;;;;;5.38;2.83;;;20.70;30.90;;;;;;5112764;27;37102;-60
2022/04/18 12:08:02;;;;;;;6.63;3.00;;;20.70;31.20;;;;;;5069059;27;39529;-61
2022/04/18 12:10:35;;;;;;;7.80;2.70;;;20.70;30.00;;;;;;5111215;27;37636;-54
2022/04/18 12:13:05;;;;;;;4.43;2.60;;;20.60;30.00;;;;;;5110286;27;37489;-54
2022/04/18 12:15:33;;;;;;;5.13;2.17;;;20.70;30.00;;;;;;5111289;27;37461;-54
2022/04/18 12:18:10;;;;;;;7.90;2.95;;;20.70;30.30;;;;;;5111939;27;38474;-55
2022/04/18 12:20:42;;;;;;;6.00;2.90;;;20.70;29.70;;;;;;5109832;27;38922;-61
2022/04/18 12:23:14;;;;;;;6.28;3.35;;;20.50;29.50;;;;;;5112463;27;38873;-60
2022/04/18 12:25:46;;;;;;;5.57;2.50;;;20.40;30.00;;;;;;5110868;27;35895;-61
2022/04/18 12:28:14;;;;;;;8.95;3.10;;;20.30;29.60;;;;;;5110255;27;37777;-61
2022/04/18 12:30:48;;;;;;;7.18;2.70;;;20.20;29.70;;;;;;5111969;27;37573;-54
2022/04/18 12:33:19;;;;;;;5.07;2.65;;;20.20;29.80;;;;;;5111065;27;35900;-61
2022/04/18 12:35:48;;;;;;;7.63;3.70;;;20.10;29.60;;;;;;5111025;27;35450;-61
2022/04/18 12:38:17;;;;;;;8.55;3.47;;;20.10;29.70;;;;;;5110523;27;37478;-61
2022/04/18 12:40:47;;;;;;;7.53;3.45;;;20.00;29.80;;;;;;5112611;27;37582;-61
2022/04/18 12:43:16;;;;;;;5.50;3.10;;;20.00;30.10;;;;;;5113512;27;35760;-61
2022/04/18 12:45:49;;;;;;;6.80;3.35;;;20.00;29.90;;;;;;5112447;27;35318;-61
2022/04/18 12:48:24;;;;;;;15.68;3.83;;;20.00;30.70;;;;;;5111556;27;38141;-61
2022/04/18 12:50:51;;;;;;;4.35;2.42;;;20.00;30.50;;;;;;5110957;27;37144;-61
2022/04/18 12:53:19;;;;;;;6.32;3.03;;;20.00;30.00;;;;;;5112854;27;37852;-61
2022/04/18 12:56:03;;;;;;;7.57;3.15;;;20.00;30.50;;;;;;5112949;27;35389;-53
2022/04/18 12:58:38;;;;;;;6.28;2.63;;;20.00;30.70;;;;;;5111821;27;37387;-53
2022/04/18 13:01:06;;;;;;;8.27;3.80;;;20.00;31.90;;;;;;5110501;27;38448;-61
2022/04/18 13:03:42;;;;;;;9.95;4.30;;;20.10;31.80;;;;;;5112105;27;35917;-61
2022/04/18 13:06:09;;;;;;;6.47;3.58;;;20.00;30.70;;;;;;5110126;27;36400;-61
2022/04/18 13:08:38;;;;;;;4.75;2.53;;;20.00;31.30;;;;;;5109796;27;38825;-61
2022/04/18 13:11:07;;;;;;;6.25;2.85;;;19.90;31.30;;;;;;5109647;27;37428;-61
2022/04/18 13:13:35;;;;;;;5.28;3.08;;;19.90;30.90;;;;;;5111852;27;37350;-62